createdAt,value
2023-05-16T00:01:46.290Z,100.00
2023-05-16T00:04:13.283Z,100.00
2023-05-16T00:06:39.977Z,100.00
2023-05-16T00:09:07.221Z,100.00
2023-05-16T00:11:33.850Z,100.00
2023-05-16T00:14:01.756Z,100.00
2023-05-16T00:16:30.339Z,100.00
2023-05-16T00:19:01.309Z,100.00
2023-05-16T00:21:28.320Z,100.00
2023-05-16T00:23:55.063Z,100.00
2023-05-16T00:26:22.053Z,100.00
2023-05-16T00:28:49.010Z,100.00
2023-05-16T00:31:15.974Z,100.00
2023-05-16T00:33:42.635Z,100.00
2023-05-16T00:36:09.323Z,100.00
2023-05-16T00:38:36.001Z,100.00
2023-05-16T00:41:02.594Z,100.00
2023-05-16T00:43:29.218Z,100.00
2023-05-16T00:45:58.223Z,100.00
2023-05-16T00:48:25.270Z,100.00
2023-05-16T00:50:53.094Z,100.00
2023-05-16T00:53:20.135Z,100.00
2023-05-16T00:55:47.687Z,100.00
2023-05-16T00:58:15.007Z,100.00
2023-05-16T01:00:41.950Z,100.00
2023-05-16T01:03:08.918Z,100.00
2023-05-16T01:05:35.627Z,100.00
2023-05-16T01:08:02.280Z,100.00
2023-05-16T01:13:37.210Z,100.00
2023-05-16T01:16:27.609Z,100.00
2023-05-16T01:19:08.421Z,100.00
2023-05-16T01:21:58.545Z,100.00
2023-05-16T01:24:36.434Z,100.00
2023-05-16T01:27:05.249Z,100.00
2023-05-16T01:29:32.525Z,100.00
2023-05-16T01:31:59.416Z,100.00
2023-05-16T01:34:26.507Z,100.00
2023-05-16T01:37:41.580Z,100.00
2023-05-16T01:40:27.649Z,100.00
2023-05-16T01:42:55.711Z,100.00
2023-05-16T01:45:31.778Z,100.00
2023-05-16T01:48:11.016Z,100.00
2023-05-16T01:50:44.812Z,100.00
2023-05-16T01:53:23.819Z,100.00
2023-05-16T01:55:52.791Z,100.00
2023-05-16T01:58:26.328Z,100.00
2023-05-16T02:00:54.053Z,100.00
2023-05-16T02:03:20.820Z,100.00
2023-05-16T02:05:47.561Z,100.00
2023-05-16T02:08:14.901Z,100.00
2023-05-16T02:10:41.667Z,100.00
2023-05-16T02:13:08.333Z,100.00
2023-05-16T02:15:34.971Z,100.00
2023-05-16T02:18:01.666Z,100.00
2023-05-16T02:20:28.268Z,100.00
2023-05-16T02:22:54.816Z,100.00
2023-05-16T02:25:21.494Z,100.00
2023-05-16T02:27:48.115Z,100.00
2023-05-16T02:30:14.861Z,100.00
2023-05-16T02:32:45.142Z,100.00
2023-05-16T02:35:12.593Z,100.00
2023-05-16T02:37:39.316Z,100.00
2023-05-16T02:40:06.584Z,100.00
2023-05-16T02:42:33.381Z,100.00
2023-05-16T02:45:00.210Z,100.00
2023-05-16T02:47:26.925Z,100.00
2023-05-16T02:49:53.707Z,100.00
2023-05-16T02:52:20.587Z,100.00
2023-05-16T02:54:59.848Z,100.00
2023-05-16T02:57:31.119Z,100.00
2023-05-16T02:59:57.655Z,100.00
2023-05-16T03:02:24.380Z,100.00
2023-05-16T03:04:50.961Z,100.00
2023-05-16T03:07:18.037Z,100.00
2023-05-16T03:09:44.576Z,100.00
2023-05-16T03:12:11.106Z,100.00
2023-05-16T03:14:37.632Z,100.00
2023-05-16T03:17:04.466Z,100.00
2023-05-16T03:19:31.042Z,100.00
2023-05-16T03:21:57.843Z,100.00
2023-05-16T03:24:25.333Z,100.00
2023-05-16T03:26:52.267Z,100.00
2023-05-16T03:29:18.909Z,100.00
2023-05-16T03:31:45.642Z,100.00
2023-05-16T03:34:12.267Z,100.00
2023-05-16T03:36:41.164Z,100.00
2023-05-16T03:39:08.758Z,100.00
2023-05-16T03:41:35.336Z,100.00
2023-05-16T03:44:01.970Z,100.00
2023-05-16T03:46:28.726Z,100.00
2023-05-16T03:48:55.261Z,100.00
2023-05-16T03:51:21.857Z,100.00
2023-05-16T03:53:48.371Z,100.00
2023-05-16T03:56:14.989Z,100.00
2023-05-16T03:58:41.626Z,100.00
2023-05-16T04:01:08.157Z,100.00
2023-05-16T04:03:34.791Z,100.00
2023-05-16T04:06:01.502Z,100.00
2023-05-16T04:08:28.157Z,100.00
2023-05-16T04:10:54.715Z,100.00
2023-05-16T04:13:21.610Z,100.00
2023-05-16T04:15:48.225Z,100.00
2023-05-16T04:18:14.881Z,100.00
2023-05-16T04:20:44.784Z,100.00
2023-05-16T04:23:12.151Z,100.00
2023-05-16T04:25:38.865Z,100.00
2023-05-16T04:28:06.138Z,100.00
2023-05-16T04:30:33.557Z,100.00
2023-05-16T04:33:00.223Z,100.00
2023-05-16T04:35:28.878Z,100.00
2023-05-16T04:37:56.077Z,100.00
2023-05-16T04:40:22.736Z,100.00
2023-05-16T04:42:49.713Z,100.00
2023-05-16T04:45:16.570Z,100.00
2023-05-16T04:47:43.186Z,100.00
2023-05-16T04:50:10.398Z,100.00
2023-05-16T04:52:38.323Z,100.00
2023-05-16T04:55:05.434Z,100.00
2023-05-16T04:57:32.092Z,100.00
2023-05-16T04:59:58.659Z,100.00
2023-05-16T05:02:25.326Z,100.00
2023-05-16T05:04:52.210Z,100.00
2023-05-16T05:07:19.035Z,100.00
2023-05-16T05:09:46.270Z,100.00
2023-05-16T05:12:12.873Z,100.00
2023-05-16T05:14:39.572Z,100.00
2023-05-16T05:17:06.624Z,100.00
2023-05-16T05:19:33.326Z,100.00
2023-05-16T05:22:00.298Z,100.00
2023-05-16T05:24:27.044Z,100.00
2023-05-16T05:26:53.729Z,100.00
2023-05-16T05:29:20.518Z,100.00
2023-05-16T05:31:47.497Z,100.00
2023-05-16T05:34:14.256Z,100.00
2023-05-16T05:36:41.000Z,100.00
2023-05-16T05:39:07.866Z,100.00
2023-05-16T05:41:34.905Z,100.00
2023-05-16T05:44:01.488Z,100.00
2023-05-16T05:46:28.259Z,100.00
2023-05-16T05:48:55.019Z,100.00
2023-05-16T05:51:21.993Z,100.00
2023-05-16T05:53:49.013Z,100.00
2023-05-16T05:56:15.665Z,100.00
2023-05-16T05:58:42.766Z,100.00
2023-05-16T06:01:11.452Z,100.00
2023-05-16T06:03:38.403Z,100.00
2023-05-16T06:06:05.555Z,100.00
2023-05-16T06:08:32.188Z,100.00
2023-05-16T06:10:58.794Z,100.00
2023-05-16T06:13:25.398Z,100.00
2023-05-16T06:15:53.102Z,100.00
2023-05-16T06:18:20.351Z,100.00
2023-05-16T06:20:47.614Z,100.00
2023-05-16T06:23:14.276Z,100.00
2023-05-16T06:25:41.006Z,100.00
2023-05-16T06:28:07.673Z,100.00
2023-05-16T06:30:35.053Z,100.00
2023-05-16T06:33:01.686Z,100.00
2023-05-16T06:35:28.540Z,100.00
2023-05-16T06:37:55.529Z,100.00
2023-05-16T06:40:23.454Z,100.00
2023-05-16T06:42:50.159Z,100.00
2023-05-16T06:45:16.908Z,100.00
2023-05-16T06:47:43.585Z,100.00
2023-05-16T06:50:11.152Z,100.00
2023-05-16T06:52:37.872Z,100.00
2023-05-16T06:55:04.910Z,100.00
2023-05-16T06:57:31.650Z,100.00
2023-05-16T06:59:58.300Z,100.00
2023-05-16T07:02:25.103Z,100.00
2023-05-16T07:04:51.879Z,100.00
2023-05-16T07:07:18.596Z,100.00
2023-05-16T07:09:45.283Z,100.00
2023-05-16T07:12:12.041Z,100.00
2023-05-16T07:14:38.661Z,100.00
2023-05-16T07:17:14.366Z,100.00
2023-05-16T07:19:41.044Z,100.00
2023-05-16T07:22:07.693Z,100.00
2023-05-16T07:24:34.409Z,100.00
2023-05-16T07:27:01.801Z,100.00
2023-05-16T07:29:28.644Z,100.00
2023-05-16T07:31:55.423Z,100.00
2023-05-16T07:34:22.120Z,100.00
2023-05-16T07:36:51.095Z,100.00
2023-05-16T07:39:19.038Z,100.00
2023-05-16T07:41:45.922Z,94.20
2023-05-16T07:44:12.572Z,90.96
2023-05-16T07:46:39.324Z,89.64
2023-05-16T07:49:06.262Z,88.52
2023-05-16T07:51:33.359Z,89.66
2023-05-16T07:54:00.078Z,88.45
2023-05-16T07:56:26.824Z,86.53
2023-05-16T07:58:53.691Z,87.63
2023-05-16T08:01:20.633Z,83.48
2023-05-16T08:03:47.270Z,83.44
2023-05-16T08:06:13.999Z,80.70
2023-05-16T08:08:40.924Z,79.51
2023-05-16T08:11:07.654Z,80.36
2023-05-16T08:13:34.285Z,81.42
2023-05-16T08:16:01.299Z,80.23
2023-05-16T08:18:27.945Z,80.13
2023-05-16T08:20:54.685Z,79.71
2023-05-16T08:23:21.381Z,79.89
2023-05-16T08:25:48.036Z,79.11
2023-05-16T08:28:15.433Z,80.46
2023-05-16T08:30:43.783Z,84.42
2023-05-16T08:33:11.310Z,87.85
2023-05-16T08:35:37.955Z,90.58
2023-05-16T08:38:04.984Z,92.30
2023-05-16T08:40:31.812Z,90.76
2023-05-16T08:42:59.355Z,87.68
2023-05-16T08:45:26.728Z,87.91
2023-05-16T08:47:57.063Z,87.39
2023-05-16T08:50:25.974Z,87.08
2023-05-16T08:52:53.939Z,85.05
2023-05-16T08:55:22.558Z,81.66
2023-05-16T08:57:53.222Z,68.30
2023-05-16T09:00:20.467Z,70.39
2023-05-16T09:02:47.390Z,70.63
2023-05-16T09:05:18.260Z,69.64
2023-05-16T09:07:46.296Z,70.19
2023-05-16T09:10:13.415Z,72.70
2023-05-16T09:12:44.499Z,70.67
2023-05-16T09:15:11.978Z,78.48
2023-05-16T09:17:44.370Z,80.46
2023-05-16T09:20:16.324Z,81.21
2023-05-16T09:22:59.515Z,82.25
2023-05-16T09:25:30.882Z,85.64
2023-05-16T09:27:59.209Z,82.46
2023-05-16T09:30:31.795Z,82.80
2023-05-16T09:32:59.607Z,81.85
2023-05-16T09:37:56.994Z,80.93
2023-05-16T09:40:24.331Z,80.18
2023-05-16T09:43:08.028Z,82.40
2023-05-16T09:45:36.513Z,81.20
2023-05-16T09:48:08.388Z,81.66
2023-05-16T09:50:36.430Z,77.01
2023-05-16T09:53:03.842Z,75.74
2023-05-16T09:55:31.565Z,72.80
2023-05-16T09:57:58.480Z,61.83
2023-05-16T10:00:35.321Z,63.27
2023-05-16T10:03:05.736Z,61.11
2023-05-16T10:05:34.948Z,61.70
2023-05-16T10:08:03.173Z,62.57
2023-05-16T10:10:30.873Z,67.74
2023-05-16T10:13:01.699Z,75.71
2023-05-16T10:15:29.719Z,78.52
2023-05-16T10:18:00.200Z,80.09
2023-05-16T10:20:27.701Z,73.60
2023-05-16T10:22:56.968Z,71.23
2023-05-16T10:25:36.710Z,70.19
2023-05-16T10:28:04.656Z,73.43
2023-05-16T10:30:34.054Z,76.90
2023-05-16T10:33:02.518Z,76.05
2023-05-16T10:35:29.714Z,77.55
2023-05-16T10:37:58.160Z,76.78
2023-05-16T10:40:25.066Z,69.95
2023-05-16T10:43:00.509Z,63.43
2023-05-16T10:45:27.597Z,68.51
2023-05-16T10:48:05.115Z,65.36
2023-05-16T10:50:40.095Z,58.40
2023-05-16T10:53:20.413Z,62.52
2023-05-16T10:55:49.743Z,57.52
2023-05-16T10:58:24.547Z,57.93
2023-05-16T11:01:30.416Z,59.52
2023-05-16T11:03:57.186Z,60.51
2023-05-16T11:06:25.113Z,64.96
2023-05-16T11:09:10.984Z,68.34
2023-05-16T11:11:53.804Z,61.33
2023-05-16T11:14:26.236Z,54.15
2023-05-16T11:17:23.293Z,50.28
2023-05-16T11:19:56.056Z,47.41
2023-05-16T11:22:24.727Z,45.97
2023-05-16T11:24:52.966Z,50.66
2023-05-16T11:27:33.877Z,53.42
2023-05-16T11:30:13.129Z,52.78
2023-05-16T11:32:42.836Z,44.25
2023-05-16T11:35:14.818Z,43.86
2023-05-16T11:37:42.841Z,41.91
2023-05-16T11:40:12.455Z,41.34
2023-05-16T11:42:41.692Z,40.52
2023-05-16T11:45:10.338Z,39.92
2023-05-16T11:47:38.994Z,40.28
2023-05-16T11:50:08.933Z,40.16
2023-05-16T11:52:35.962Z,39.78
2023-05-16T11:55:04.822Z,41.42
2023-05-16T11:57:32.063Z,43.20
2023-05-16T12:00:13.999Z,39.69
2023-05-16T12:02:40.784Z,36.90
2023-05-16T12:05:10.032Z,36.49
2023-05-16T12:07:40.994Z,39.10
2023-05-16T12:10:09.179Z,46.24
2023-05-16T12:12:37.077Z,38.62
2023-05-16T12:15:06.716Z,34.33
2023-05-16T12:17:38.425Z,30.04
2023-05-16T12:20:06.855Z,28.46
2023-05-16T12:22:34.688Z,29.04
2023-05-16T12:25:22.104Z,29.70
2023-05-16T12:27:48.760Z,28.65
2023-05-16T12:30:17.963Z,28.18
2023-05-16T12:32:45.298Z,26.83
2023-05-16T12:35:13.436Z,26.26
2023-05-16T12:37:40.179Z,25.58
2023-05-16T12:40:09.871Z,24.16
2023-05-16T12:42:37.090Z,24.71
2023-05-16T12:45:04.526Z,23.88
2023-05-16T12:47:38.641Z,23.63
2023-05-16T12:50:10.684Z,22.88
2023-05-16T12:52:37.717Z,23.23
2023-05-16T12:55:05.127Z,23.71
2023-05-16T12:57:34.389Z,23.98
2023-05-16T13:00:01.682Z,26.35
2023-05-16T13:02:28.478Z,25.92
2023-05-16T13:04:55.169Z,26.15
2023-05-16T13:07:21.749Z,32.47
2023-05-16T13:09:48.531Z,36.29
2023-05-16T13:12:15.950Z,63.39
2023-05-16T13:14:43.858Z,74.12
2023-05-16T13:17:12.020Z,82.39
2023-05-16T13:19:39.084Z,68.29
2023-05-16T13:22:05.870Z,44.25
2023-05-16T13:24:32.536Z,35.33
2023-05-16T13:27:00.108Z,28.87
2023-05-16T13:29:26.820Z,27.87
2023-05-16T13:31:53.520Z,26.92
2023-05-16T13:34:20.150Z,28.23
2023-05-16T13:36:54.086Z,27.93
2023-05-16T13:39:22.271Z,28.22
2023-05-16T13:41:49.289Z,28.48
2023-05-16T13:44:16.842Z,26.60
2023-05-16T13:46:43.756Z,26.01
2023-05-16T13:49:10.742Z,28.06
2023-05-16T13:51:37.378Z,29.21
2023-05-16T13:54:03.962Z,30.70
2023-05-16T13:56:30.660Z,30.91
2023-05-16T13:59:03.645Z,28.71
2023-05-16T14:01:33.440Z,28.97
2023-05-16T14:04:00.240Z,30.57
2023-05-16T14:06:26.898Z,34.35
2023-05-16T14:08:53.578Z,37.37
2023-05-16T14:11:23.185Z,36.91
2023-05-16T14:13:49.771Z,31.45
2023-05-16T14:16:18.681Z,29.39
2023-05-16T14:18:45.396Z,28.24
2023-05-16T14:21:12.159Z,29.23
2023-05-16T14:23:38.936Z,26.43
2023-05-16T14:26:07.579Z,25.17
2023-05-16T14:28:36.589Z,24.76
2023-05-16T14:31:03.424Z,23.86
2023-05-16T14:33:31.229Z,22.87
2023-05-16T14:35:57.882Z,22.06
2023-05-16T14:38:24.707Z,21.67
2023-05-16T14:40:51.316Z,22.48
2023-05-16T14:43:18.068Z,23.57
2023-05-16T14:45:44.830Z,27.07
2023-05-16T14:48:11.547Z,26.96
2023-05-16T14:50:38.265Z,28.58
2023-05-16T14:53:05.042Z,29.73
2023-05-16T14:55:31.713Z,32.21
2023-05-16T14:58:00.004Z,34.00
2023-05-16T15:00:27.526Z,31.90
2023-05-16T15:02:54.395Z,30.50
2023-05-16T15:05:21.244Z,33.03
2023-05-16T15:07:48.326Z,34.22
2023-05-16T15:10:14.993Z,37.07
2023-05-16T15:12:43.421Z,39.21
2023-05-16T15:15:16.382Z,44.46
2023-05-16T15:17:43.579Z,44.60
2023-05-16T15:20:11.751Z,42.67
2023-05-16T15:22:41.826Z,37.02
2023-05-16T15:25:09.308Z,39.33
2023-05-16T15:27:36.447Z,44.08
2023-05-16T15:30:03.978Z,45.46
2023-05-16T15:32:30.990Z,43.33
2023-05-16T15:34:57.691Z,45.89
2023-05-16T15:37:24.404Z,52.77
2023-05-16T15:39:51.273Z,59.81
2023-05-16T15:42:20.028Z,66.63
2023-05-16T15:44:46.885Z,74.22
2023-05-16T15:47:13.669Z,79.62
2023-05-16T15:49:40.461Z,79.30
2023-05-16T15:52:07.762Z,84.63
2023-05-16T15:54:35.946Z,85.39
2023-05-16T15:57:02.718Z,81.29
2023-05-16T15:59:29.387Z,78.58
2023-05-16T16:01:56.113Z,77.10
2023-05-16T16:04:23.734Z,78.65
2023-05-16T16:06:53.133Z,79.26
2023-05-16T16:09:19.816Z,76.98
2023-05-16T16:11:46.420Z,67.70
2023-05-16T16:14:13.124Z,73.98
2023-05-16T16:16:40.794Z,78.52
2023-05-16T16:19:08.579Z,79.26
2023-05-16T16:21:35.250Z,79.30
2023-05-16T16:24:01.895Z,82.66
2023-05-16T16:26:28.689Z,83.54
2023-05-16T16:28:55.456Z,83.72
2023-05-16T16:31:22.376Z,78.67
2023-05-16T16:33:49.390Z,75.59
2023-05-16T16:36:17.162Z,76.85
2023-05-16T16:38:44.197Z,78.53
2023-05-16T16:41:11.395Z,77.29
2023-05-16T16:43:40.947Z,80.04
2023-05-16T16:46:08.370Z,84.66
2023-05-16T16:48:37.235Z,87.97
2023-05-16T16:51:04.196Z,88.76
2023-05-16T16:53:30.882Z,90.51
2023-05-16T16:55:57.593Z,100.00
2023-05-16T16:58:24.236Z,100.00
2023-05-16T17:00:50.908Z,100.00
2023-05-16T17:03:17.599Z,100.00
2023-05-16T17:05:45.172Z,100.00
2023-05-16T17:08:12.369Z,100.00
2023-05-16T17:10:39.518Z,100.00
2023-05-16T17:13:10.536Z,100.00
2023-05-16T17:15:37.935Z,100.00
2023-05-16T17:18:08.669Z,100.00
2023-05-16T17:20:36.548Z,100.00
2023-05-16T17:23:03.943Z,100.00
2023-05-16T17:25:30.891Z,100.00
2023-05-16T17:27:57.736Z,100.00
2023-05-16T17:30:24.451Z,100.00
2023-05-16T17:32:51.408Z,100.00
2023-05-16T17:35:18.421Z,100.00
2023-05-16T17:37:47.511Z,100.00
2023-05-16T17:40:17.395Z,100.00
2023-05-16T17:42:45.543Z,100.00
2023-05-16T17:45:14.081Z,100.00
2023-05-16T17:47:41.445Z,100.00
2023-05-16T17:50:10.099Z,100.00
2023-05-16T17:52:38.116Z,100.00
2023-05-16T17:55:06.305Z,100.00
2023-05-16T17:57:34.422Z,100.00
2023-05-16T18:00:01.969Z,100.00
2023-05-16T18:02:28.747Z,100.00
2023-05-16T18:04:55.997Z,100.00
2023-05-16T18:07:22.825Z,100.00
2023-05-16T18:09:49.726Z,100.00
2023-05-16T18:12:16.564Z,100.00
2023-05-16T18:14:45.308Z,100.00
2023-05-16T18:17:13.540Z,100.00
2023-05-16T18:19:40.461Z,100.00
2023-05-16T18:22:08.969Z,100.00
2023-05-16T18:24:35.835Z,100.00
2023-05-16T18:27:03.337Z,100.00
2023-05-16T18:29:30.537Z,100.00
2023-05-16T18:31:58.054Z,100.00
2023-05-16T18:34:26.055Z,100.00
2023-05-16T18:36:52.785Z,100.00
2023-05-16T18:39:20.547Z,100.00
2023-05-16T18:41:48.534Z,100.00
2023-05-16T18:44:18.179Z,100.00
2023-05-16T18:46:46.582Z,100.00
2023-05-16T18:49:13.920Z,100.00
2023-05-16T18:51:40.919Z,100.00
2023-05-16T18:54:07.768Z,100.00
2023-05-16T18:56:34.572Z,100.00
2023-05-16T18:59:01.402Z,100.00
2023-05-16T19:01:28.259Z,100.00
2023-05-16T19:03:55.118Z,100.00
2023-05-16T19:06:21.886Z,100.00
2023-05-16T19:08:48.724Z,100.00
2023-05-16T19:11:16.543Z,100.00
2023-05-16T19:13:43.668Z,100.00
2023-05-16T19:16:10.645Z,100.00
2023-05-16T19:18:37.565Z,100.00
2023-05-16T19:21:04.530Z,100.00
2023-05-16T19:23:31.381Z,100.00
2023-05-16T19:25:58.219Z,100.00
2023-05-16T19:28:24.929Z,100.00
2023-05-16T19:30:51.776Z,100.00
2023-05-16T19:33:18.543Z,100.00
2023-05-16T19:35:45.880Z,100.00
2023-05-16T19:38:12.674Z,100.00
2023-05-16T19:40:39.383Z,100.00
2023-05-16T19:43:06.127Z,100.00
2023-05-16T19:45:32.737Z,100.00
2023-05-16T19:47:59.430Z,100.00
2023-05-16T19:50:26.586Z,100.00
2023-05-16T19:52:53.488Z,100.00
2023-05-16T19:55:20.157Z,100.00
2023-05-16T19:57:46.856Z,100.00
2023-05-16T20:00:14.431Z,100.00
2023-05-16T20:02:43.104Z,100.00
2023-05-16T20:05:10.284Z,100.00
2023-05-16T20:07:37.087Z,100.00
2023-05-16T20:10:03.814Z,100.00
2023-05-16T20:12:30.656Z,100.00
2023-05-16T20:14:57.273Z,100.00
2023-05-16T20:17:24.069Z,100.00
2023-05-16T20:19:50.981Z,100.00
2023-05-16T20:22:19.287Z,100.00
2023-05-16T20:24:45.979Z,100.00
2023-05-16T20:27:12.618Z,100.00
2023-05-16T20:29:39.292Z,100.00
2023-05-16T20:32:06.118Z,100.00
2023-05-16T20:34:32.800Z,100.00
2023-05-16T20:36:59.817Z,100.00
2023-05-16T20:39:26.495Z,100.00
2023-05-16T20:41:53.474Z,100.00
2023-05-16T20:44:20.741Z,100.00
2023-05-16T20:46:47.420Z,100.00
2023-05-16T20:49:14.039Z,100.00
2023-05-16T20:51:40.700Z,100.00
2023-05-16T20:54:07.372Z,100.00
2023-05-16T20:56:33.962Z,100.00
2023-05-16T20:59:01.934Z,100.00
2023-05-16T21:01:28.751Z,100.00
2023-05-16T21:03:55.528Z,100.00
2023-05-16T21:06:22.265Z,100.00
2023-05-16T21:08:48.882Z,100.00
2023-05-16T21:11:15.510Z,100.00
2023-05-16T21:13:42.224Z,100.00
2023-05-16T21:16:09.097Z,100.00
2023-05-16T21:18:35.880Z,100.00
2023-05-16T21:21:02.592Z,100.00
2023-05-16T21:23:29.169Z,100.00
2023-05-16T21:25:55.876Z,100.00
2023-05-16T21:28:22.669Z,100.00
2023-05-16T21:30:49.506Z,100.00
2023-05-16T21:33:16.474Z,100.00
2023-05-16T21:35:43.303Z,100.00
2023-05-16T21:38:10.073Z,100.00
2023-05-16T21:40:36.695Z,100.00
2023-05-16T21:43:03.406Z,100.00
2023-05-16T21:45:30.303Z,100.00
2023-05-16T21:47:57.299Z,100.00
2023-05-16T21:50:24.137Z,100.00
2023-05-16T21:52:51.175Z,100.00
2023-05-16T21:55:17.848Z,100.00
2023-05-16T21:57:44.531Z,100.00
2023-05-16T22:00:11.844Z,100.00
2023-05-16T22:02:38.768Z,100.00
2023-05-16T22:05:06.275Z,100.00
2023-05-16T22:07:32.997Z,100.00
2023-05-16T22:10:00.188Z,100.00
2023-05-16T22:12:27.629Z,100.00
2023-05-16T22:14:54.509Z,100.00
2023-05-16T22:17:21.666Z,100.00
2023-05-16T22:19:48.441Z,100.00
2023-05-16T22:22:15.464Z,100.00
2023-05-16T22:24:42.365Z,100.00
2023-05-16T22:27:09.168Z,100.00
2023-05-16T22:29:38.478Z,100.00
2023-05-16T22:32:07.221Z,100.00
2023-05-16T22:34:34.668Z,100.00
2023-05-16T22:37:01.281Z,100.00
2023-05-16T22:39:27.843Z,100.00
2023-05-16T22:41:54.436Z,100.00
2023-05-16T22:44:21.727Z,100.00
2023-05-16T22:46:48.539Z,100.00
2023-05-16T22:49:17.872Z,100.00
2023-05-16T22:51:45.005Z,100.00
2023-05-16T22:54:13.308Z,100.00
2023-05-16T22:56:39.933Z,100.00
2023-05-16T22:59:06.646Z,100.00
2023-05-16T23:01:33.648Z,100.00
2023-05-16T23:04:00.645Z,100.00
2023-05-16T23:06:27.701Z,100.00
2023-05-16T23:08:54.333Z,100.00
2023-05-16T23:11:22.263Z,100.00
2023-05-16T23:13:49.286Z,100.00
2023-05-16T23:16:16.600Z,100.00
2023-05-16T23:18:49.329Z,100.00
2023-05-16T23:21:16.470Z,100.00
2023-05-16T23:23:43.722Z,100.00
2023-05-16T23:26:10.397Z,100.00
2023-05-16T23:28:37.129Z,100.00
2023-05-16T23:31:03.816Z,100.00
2023-05-16T23:33:30.570Z,100.00
2023-05-16T23:35:57.277Z,100.00
2023-05-16T23:38:25.765Z,100.00
2023-05-16T23:40:52.365Z,100.00
2023-05-16T23:43:19.100Z,100.00
2023-05-16T23:45:46.024Z,100.00
2023-05-16T23:48:12.655Z,100.00
2023-05-16T23:50:39.435Z,100.00
2023-05-16T23:53:06.153Z,100.00
2023-05-16T23:55:32.736Z,100.00
2023-05-16T23:57:59.515Z,100.00
